Track Линкевич Игорь

Time Latitude Longitude Accuracy (66% radius in meters) Altitude (meters) Speed (km/hour) Bearing (degrees) Battery (%) GPS flag
10:29:13 60.370921 29.556533 24 77.964184263986 0 296.60913085938 83 1 delete
10:29:01 60.370921 29.556533 24 78.478357958464 0 296.60913085938 83 1 delete
10:28:52 60.370921 29.556533 6 78.832349561138 0 296.60913085938 83 1 delete
10:28:49 60.370873 29.556591 6 78.950925407363 0 298.91558837891 83 1 delete
10:28:44 60.370873 29.556591 8 79.288362659879 0 298.91558837891 83 1 delete
10:28:40 60.370854 29.556653 8 79.12927205926 1.8350783586502 298.67114257812 83 1 delete
10:28:37 60.370843 29.556692 8 79.18165640467 3.9596157073975 315.36181640625 83 1 delete
10:28:35 60.370792 29.556755 8 79.450548901239 1.971594452858 343.56243896484 83 1 delete
10:28:32 60.370737 29.556783 16 79.854652279748 1.4032403230667 325.1999206543 83 1 delete
10:28:28 60.370681 29.556880 12 80.403336745937 0 304.61407470703 83 1 delete
10:28:25 60.370670 29.556921 6 80.416954760122 3.9797508716583 307.859375 83 1 delete
10:28:23 60.370647 29.557105 6 81.714971443036 5.9338765144348 303.25741577148 83 1 delete
10:28:20 60.370673 29.557325 6 83.375699949404 6.8075060844421 222.63500976562 83 1 delete
10:28:16 60.370823 29.557389 8 84.837747095059 6.0184202194214 145.45774841309 83 1 delete
10:28:13 60.370982 29.557183 8 86.080793286214 5.9893112182617 143.6463470459 83 1 delete
10:28:11 60.371140 29.556948 8 85.248842303427 7.0385036468506 181.14819335938 83 1 delete
10:28:08 60.371304 29.556974 8 83.609662838759 5.6344547271729 208.4165802002 83 1 delete
10:28:04 60.371460 29.557100 6 82.749460325596 7.1816830635071 213.79035949707 83 1 delete
10:28:01 60.371591 29.557287 6 81.599169249252 6.2999715805054 221.8943939209 83 1 delete
10:27:59 60.371695 29.557568 6 82.751795636459 5.7434787750244 243.08082580566 83 1 delete
10:27:56 60.371747 29.557881 8 84.008882294265 6.1095285415649 247.14855957031 83 1 delete
10:27:52 60.371804 29.558185 8 85.728999334813 3.7470991611481 243.26556396484 83 1 delete
10:27:49 60.371846 29.558334 6 85.818141123609 2.2542881965637 257.28570556641 83 1 delete
10:27:47 60.371889 29.558617 6 85.914506114318 7.4689974784851 254.57066345215 83 1 delete
10:27:44 60.371949 29.559013 6 87.299396259431 7.7673625946045 251.568359375 83 1 delete
10:27:40 60.372021 29.559411 6 88.842599304116 7.1591157913208 248.28257751465 83 1 delete
10:27:37 60.372082 29.559843 6 91.369665949056 8.5680513381958 250.00091552734 83 1 delete
10:27:35 60.372121 29.560331 8 95.726662153825 5.2261819839478 246.21911621094 83 1 delete
10:27:32 60.372082 29.560824 8 99.539103254911 4.7404699325562 287.154296875 83 1 delete
10:27:28 60.371991 29.561167 8 100.35179360727 4.5143465995789 295.89834594727 83 1 delete
10:27:25 60.371906 29.561450 8 99.72561754858 4.3414177894592 326.28225708008 83 1 delete
10:27:23 60.371784 29.561579 8 99.590339931619 4.4043612480164 352.01870727539 83 1 delete
10:27:20 60.371646 29.561712 6 97.796803804748 4.392858505249 338.55804443359 83 1 delete
10:27:16 60.371554 29.561927 6 98.366669592714 4.1240229606628 278.43139648438 83 1 delete
10:27:13 60.371520 29.562265 6 97.920690802008 3.8951439857483 286.54870605469 83 1 delete
10:27:11 60.371464 29.562556 8 97.226309720867 3.8259103298187 295.24380493164 83 1 delete
10:27:08 60.371401 29.562784 6 96.256247545726 3.7621710300446 299.22219848633 83 1 delete
10:27:04 60.371346 29.562991 6 96.155134636005 3.6873624324799 297.32211303711 83 1 delete
10:27:01 60.371294 29.563204 6 96.080706692047 3.6634323596954 290.7724609375 83 1 delete
10:26:59 60.371277 29.563441 6 96.104744607223 3.6969921588898 272.29278564453 83 1 delete
10:26:56 60.371279 29.563682 8 95.982478460218 3.7770135402679 257.39175415039 83 1 delete
10:26:52 60.371297 29.563952 6 95.841814155593 3.8596601486206 263.74423217773 83 1 delete
10:26:49 60.371310 29.564167 6 96.559313295104 3.7963409423828 256.40341186523 83 1 delete
10:26:47 60.371348 29.564452 6 96.941120098475 3.5634198188782 251.98655700684 83 1 delete
10:26:44 60.371365 29.564703 6 97.091933829673 3.6042437553406 244.22030639648 83 1 delete
10:26:40 60.371409 29.564936 6 97.111854996247 3.5834085941315 251.95002746582 83 1 delete
10:26:37 60.371436 29.565177 6 97.255766066671 3.4432961940765 285.755859375 83 1 delete
10:26:35 60.371395 29.565379 8 97.004445590769 3.7089102268219 313.95886230469 83 1 delete
10:26:32 60.371353 29.565534 8 96.944423676986 4.1393980979919 308.91937255859 83 1 delete
10:26:28 60.371339 29.565704 8 97.010792700114 4.3866019248962 279.06826782227 83 1 delete